Time;durP1;ratioP1;P1;durP2;ratioP2;P2;SDS_P1;SDS_P2;PMS_P1;PMS_P2;Temp;Humidity;BMP_temperature;BMP_pressure;BME280_temperature;BME280_humidity;BME280_pressure;Samples;Min_cycle;Max_cycle;Signal;HPM_P1;HPM_P2
2021/05/01 00:01:55;;;;;;;31.45;19.13;;;;;;;-141.50;100.00;63355.56;5036276;28;20448;-77
2021/05/01 00:04:21;;;;;;;29.50;20.05;;;;;;;-141.50;100.00;63355.56;5037495;28;20048;-77
2021/05/01 00:06:47;;;;;;;29.23;19.00;;;;;;;-141.50;100.00;63355.56;5056138;28;20049;-77
2021/05/01 00:09:13;;;;;;;31.67;20.45;;;;;;;-141.50;100.00;63355.56;5053763;28;20075;-77
2021/05/01 00:11:39;;;;;;;34.42;21.60;;;;;;;-141.50;100.00;63355.56;5054816;28;20045;-76
2021/05/01 00:14:05;;;;;;;32.60;20.80;;;;;;;-141.50;100.00;63355.56;5036882;28;20041;-78
2021/05/01 00:16:32;;;;;;;31.42;20.67;;;;;;;-141.50;100.00;63355.56;5037154;28;20404;-77
2021/05/01 00:18:59;;;;;;;30.35;20.02;;;;;;;-141.50;100.00;63355.56;5033878;28;20044;-77
2021/05/01 00:21:26;;;;;;;28.25;19.00;;;;;;;-141.50;100.00;63355.56;5017241;28;20045;-77
2021/05/01 00:23:52;;;;;;;31.40;20.58;;;;;;;-141.50;100.00;63355.56;5018002;28;20555;-77
2021/05/01 00:26:21;;;;;;;31.30;20.02;;;;;;;-141.50;100.00;63355.56;5040595;28;20049;-76
2021/05/01 00:28:48;;;;;;;32.58;20.13;;;;;;;-141.50;100.00;63355.56;5003801;28;20569;-75
2021/05/01 00:31:14;;;;;;;28.27;18.70;;;;;;;-141.50;100.00;63355.56;5023431;28;20476;-77
2021/05/01 00:33:40;;;;;;;34.00;20.27;;;;;;;-141.50;100.00;63355.56;5017401;28;20096;-76
2021/05/01 00:36:07;;;;;;;28.88;19.52;;;;;;;-141.50;100.00;63355.56;5033215;28;20053;-76
2021/05/01 00:38:33;;;;;;;29.40;20.02;;;;;;;-141.50;100.00;63355.56;5033336;28;20185;-75
2021/05/01 00:40:59;;;;;;;33.05;20.83;;;;;;;-141.50;100.00;63355.56;5017334;28;20099;-77
2021/05/01 00:43:27;;;;;;;34.22;20.13;;;;;;;-141.50;100.00;63355.56;5034436;28;20044;-78
2021/05/01 00:45:53;;;;;;;32.92;20.40;;;;;;;-141.50;100.00;63355.56;5035460;28;20660;-77
2021/05/01 00:48:19;;;;;;;33.45;19.35;;;;;;;-141.50;100.00;63355.56;5016025;28;20072;-77
2021/05/01 00:50:45;;;;;;;29.50;20.15;;;;;;;-141.50;100.00;63355.56;5034512;28;20501;-77
2021/05/01 00:53:13;;;;;;;30.73;19.15;;;;;;;-141.50;100.00;63355.56;5041998;28;20052;-77
2021/05/01 00:55:41;;;;;;;28.27;19.50;;;;;;;-141.50;100.00;63355.56;5030351;28;20045;-76
2021/05/01 00:58:07;;;;;;;32.67;20.67;;;;;;;-141.50;100.00;63355.56;5048614;28;20041;-76
2021/05/01 01:00:49;;;;;;;32.25;19.88;;;;;;;-141.50;100.00;63355.56;5047209;28;20046;-75
2021/05/01 01:03:16;;;;;;;29.80;19.98;;;;;;;-141.50;100.00;63355.56;5032111;28;20037;-77
2021/05/01 01:05:42;;;;;;;32.95;20.45;;;;;;;-141.50;100.00;63355.56;5050748;28;20059;-76
2021/05/01 01:08:09;;;;;;;30.77;20.95;;;;;;;-141.50;100.00;63355.56;5042714;28;20041;-76
2021/05/01 01:10:35;;;;;;;30.95;19.95;;;;;;;-141.50;100.00;63355.56;5026646;28;20076;-77
2021/05/01 01:13:04;;;;;;;32.40;21.10;;;;;;;-141.50;100.00;63355.56;5046059;28;20041;-77
2021/05/01 01:15:31;;;;;;;29.75;20.17;;;;;;;-141.50;100.00;63355.56;5044645;28;20556;-76
2021/05/01 01:17:58;;;;;;;33.25;19.63;;;;;;;-141.50;100.00;63355.56;5018045;28;20111;-76
2021/05/01 01:20:25;;;;;;;30.92;20.02;;;;;;;-141.50;100.00;63355.56;5033198;28;20064;-77
2021/05/01 01:22:52;;;;;;;31.27;20.23;;;;;;;-141.50;100.00;63355.56;5015708;28;20046;-77
2021/05/01 01:25:19;;;;;;;29.52;19.67;;;;;;;-141.50;100.00;63355.56;4999378;28;20048;-76
2021/05/01 01:27:46;;;;;;;29.85;19.83;;;;;;;-141.50;100.00;63355.56;5032414;28;20055;-76
2021/05/01 01:30:15;;;;;;;31.77;20.23;;;;;;;-141.50;100.00;63355.56;5032527;28;20096;-77
2021/05/01 01:32:41;;;;;;;34.25;20.48;;;;;;;-141.50;100.00;63355.56;5016209;28;20134;-76
2021/05/01 01:35:10;;;;;;;35.50;22.02;;;;;;;-141.50;100.00;63355.56;5000889;28;20046;-77
2021/05/01 01:37:39;;;;;;;33.85;20.58;;;;;;;-141.50;100.00;63355.56;5039728;28;20049;-78
2021/05/01 01:40:06;;;;;;;34.38;21.83;;;;;;;-141.50;100.00;63355.56;5035449;28;20050;-77
2021/05/01 01:42:32;;;;;;;32.35;21.42;;;;;;;-141.50;100.00;63355.56;5016616;28;20049;-78
2021/05/01 01:44:58;;;;;;;33.80;21.98;;;;;;;-141.50;100.00;63355.56;5035618;28;20038;-77
2021/05/01 01:47:29;;;;;;;39.35;22.95;;;;;;;-141.50;100.00;63355.56;5016591;28;20065;-76
2021/05/01 01:49:57;;;;;;;35.38;23.48;;;;;;;-141.50;100.00;63355.56;5032925;28;20099;-76
2021/05/01 01:52:24;;;;;;;37.78;23.98;;;;;;;-141.50;100.00;63355.56;5032061;28;20056;-75
2021/05/01 01:54:50;;;;;;;36.92;23.98;;;;;;;-141.50;100.00;63355.56;5031527;28;20051;-76
2021/05/01 01:57:16;;;;;;;34.70;21.70;;;;;;;-141.50;100.00;63355.56;5014083;28;20045;-76
2021/05/01 01:59:43;;;;;;;36.10;21.77;;;;;;;-141.50;100.00;63355.56;5014249;28;20052;-76
2021/05/01 02:02:09;;;;;;;36.97;23.00;;;;;;;-141.50;100.00;63355.56;5014378;28;20041;-74
2021/05/01 02:04:39;;;;;;;31.65;20.77;;;;;;;-141.50;100.00;63355.56;5014851;28;20048;-76
2021/05/01 02:07:05;;;;;;;32.88;20.85;;;;;;;-141.50;100.00;63355.56;5014542;28;20103;-78
2021/05/01 02:09:32;;;;;;;35.78;21.67;;;;;;;-141.50;100.00;63355.56;5031918;28;20045;-78
2021/05/01 02:11:58;;;;;;;36.83;23.08;;;;;;;-141.50;100.00;63355.56;5031849;28;20041;-77
2021/05/01 02:14:24;;;;;;;34.83;21.50;;;;;;;-141.50;100.00;63355.56;5032973;28;20045;-77
2021/05/01 02:16:50;;;;;;;34.47;22.80;;;;;;;-141.50;100.00;63355.56;5032399;28;20413;-77
2021/05/01 02:19:17;;;;;;;34.78;22.33;;;;;;;-141.50;100.00;63355.56;5020755;28;20143;-77
2021/05/01 02:21:43;;;;;;;36.55;23.17;;;;;;;-141.50;100.00;63355.56;5053885;28;20049;-75
2021/05/01 02:24:09;;;;;;;39.88;24.02;;;;;;;-141.50;100.00;63355.56;5035656;28;20397;-77
2021/05/01 02:26:35;;;;;;;35.20;23.00;;;;;;;-141.50;100.00;63355.56;5056463;28;20122;-78
2021/05/01 02:29:02;;;;;;;36.60;23.50;;;;;;;-141.50;100.00;63355.56;5048296;28;20044;-77
2021/05/01 02:31:28;;;;;;;34.08;22.45;;;;;;;-141.50;100.00;63355.56;5033070;28;20044;-77
2021/05/01 02:33:54;;;;;;;33.50;22.08;;;;;;;-141.50;100.00;63355.56;5047604;28;20052;-76
2021/05/01 02:36:20;;;;;;;37.78;25.05;;;;;;;-141.50;100.00;63355.56;5066241;28;20041;-76
2021/05/01 02:38:46;;;;;;;39.35;24.75;;;;;;;-141.50;100.00;63355.56;5069856;28;20113;-76
2021/05/01 02:41:12;;;;;;;39.08;24.52;;;;;;;-141.50;100.00;63355.56;5071144;28;20045;-76
2021/05/01 02:43:38;;;;;;;41.67;24.42;;;;;;;-141.50;100.00;63355.56;5069556;28;20044;-77
2021/05/01 02:46:04;;;;;;;37.55;24.42;;;;;;;-141.50;100.00;63355.56;5035739;28;20053;-75
2021/05/01 02:48:31;;;;;;;34.10;22.17;;;;;;;-141.50;100.00;63355.56;5046220;28;20048;-75
2021/05/01 02:50:58;;;;;;;35.47;23.40;;;;;;;-141.50;100.00;63355.56;5048929;28;20049;-77
2021/05/01 02:53:25;;;;;;;37.30;23.40;;;;;;;-141.50;100.00;63355.56;5033963;28;20504;-77
2021/05/01 02:55:51;;;;;;;38.05;23.08;;;;;;;-141.50;100.00;63355.56;5034797;28;20305;-77
2021/05/01 02:58:17;;;;;;;37.28;23.15;;;;;;;-141.50;100.00;63355.56;5034372;28;20578;-77
2021/05/01 03:00:43;;;;;;;35.17;23.88;;;;;;;-141.50;100.00;63355.56;5051534;28;20577;-77
2021/05/01 03:03:09;;;;;;;35.97;22.80;;;;;;;-141.50;100.00;63355.56;5033262;28;20049;-77
2021/05/01 03:05:35;;;;;;;40.40;24.58;;;;;;;-141.50;100.00;63355.56;5051663;28;20280;-78
2021/05/01 03:08:01;;;;;;;40.05;26.08;;;;;;;-141.50;100.00;63355.56;5032921;28;20451;-77
2021/05/01 03:10:29;;;;;;;39.25;25.50;;;;;;;-141.50;100.00;63355.56;5042488;28;20101;-75
2021/05/01 03:12:56;;;;;;;38.78;24.27;;;;;;;-141.50;100.00;63355.56;5037597;28;20143;-75
2021/05/01 03:15:24;;;;;;;41.42;26.02;;;;;;;-141.50;100.00;63355.56;5049800;28;20049;-77
2021/05/01 03:17:50;;;;;;;38.05;24.63;;;;;;;-141.50;100.00;63355.56;5032549;28;20053;-77
2021/05/01 03:20:19;;;;;;;41.38;24.70;;;;;;;-141.50;100.00;63355.56;5037219;28;20072;-78
2021/05/01 03:22:47;;;;;;;38.13;24.58;;;;;;;-141.50;100.00;63355.56;5030626;28;20557;-76
2021/05/01 03:25:14;;;;;;;39.25;25.20;;;;;;;-141.50;100.00;63355.56;5031235;28;20046;-75
2021/05/01 03:27:41;;;;;;;39.42;25.55;;;;;;;-141.50;100.00;63355.56;5031690;28;20088;-77
2021/05/01 03:30:10;;;;;;;37.45;24.55;;;;;;;-141.50;100.00;63355.56;5031679;28;20169;-77
2021/05/01 03:32:37;;;;;;;40.20;25.20;;;;;;;-141.50;100.00;63355.56;5030902;28;20048;-76
2021/05/01 03:35:05;;;;;;;39.22;24.45;;;;;;;-141.50;100.00;63355.56;4996378;28;20074;-76
2021/05/01 03:37:33;;;;;;;40.60;24.95;;;;;;;-141.50;100.00;63355.56;5015990;28;20061;-77
2021/05/01 03:39:59;;;;;;;38.63;24.77;;;;;;;-141.50;100.00;63355.56;5036308;28;20053;-79
2021/05/01 03:42:25;;;;;;;38.85;23.58;;;;;;;-141.50;100.00;63355.56;5035660;28;20123;-77
2021/05/01 03:44:51;;;;;;;39.38;25.70;;;;;;;-141.50;100.00;63355.56;5017468;28;20508;-77
2021/05/01 03:47:18;;;;;;;45.78;27.55;;;;;;;-141.50;100.00;63355.56;5023061;28;20041;-75
2021/05/01 03:49:44;;;;;;;45.13;26.52;;;;;;;-141.50;100.00;63355.56;5004636;28;20053;-76
2021/05/01 03:52:10;;;;;;;41.45;25.52;;;;;;;-141.50;100.00;63355.56;5016199;28;20053;-76
2021/05/01 03:54:36;;;;;;;36.03;23.27;;;;;;;-141.50;100.00;63355.56;5036752;28;20041;-75
2021/05/01 03:57:02;;;;;;;38.47;22.98;;;;;;;-141.50;100.00;63355.56;5016535;28;20052;-76
2021/05/01 03:59:29;;;;;;;38.58;24.80;;;;;;;-141.50;100.00;63355.56;5034888;28;20055;-77
2021/05/01 04:01:57;;;;;;;40.85;25.27;;;;;;;-141.50;100.00;63355.56;5034585;28;20521;-76
2021/05/01 04:04:23;;;;;;;40.88;26.25;;;;;;;-141.50;100.00;63355.56;5034586;28;20049;-77
2021/05/01 04:06:49;;;;;;;37.90;24.23;;;;;;;-141.50;100.00;63355.56;5015985;28;20045;-77
2021/05/01 04:09:16;;;;;;;43.63;26.45;;;;;;;-141.50;100.00;63355.56;5032093;28;20045;-76
2021/05/01 04:11:42;;;;;;;44.72;27.25;;;;;;;-141.50;100.00;63355.56;5016075;28;20476;-76
2021/05/01 04:14:09;;;;;;;45.08;27.02;;;;;;;-141.50;100.00;63355.56;5033491;28;20068;-76
2021/05/01 04:16:35;;;;;;;44.40;27.20;;;;;;;-141.50;100.00;63355.56;5042807;28;20042;-77
2021/05/01 04:19:01;;;;;;;43.97;26.77;;;;;;;-141.50;100.00;63355.56;5038091;23;20057;-74
2021/05/01 04:21:28;;;;;;;43.13;25.85;;;;;;;-141.50;100.00;63355.56;5029599;28;20048;-75
2021/05/01 04:23:54;;;;;;;41.58;25.17;;;;;;;-141.50;100.00;63355.56;5011905;28;20429;-74
2021/05/01 04:26:21;;;;;;;41.20;25.23;;;;;;;-141.50;100.00;63355.56;5046202;28;20060;-73
2021/05/01 04:28:47;;;;;;;41.65;27.38;;;;;;;-141.50;100.00;63355.56;5032118;28;20081;-74
2021/05/01 04:31:14;;;;;;;47.83;29.83;;;;;;;-141.50;100.00;63355.56;5033769;28;20071;-76
2021/05/01 04:33:40;;;;;;;50.08;29.70;;;;;;;-141.50;100.00;63355.56;5017182;28;20045;-75
2021/05/01 04:36:06;;;;;;;51.75;31.30;;;;;;;-141.50;100.00;63355.56;5034289;28;20128;-75
2021/05/01 04:38:35;;;;;;;47.17;29.20;;;;;;;-141.50;100.00;63355.56;5034402;28;20049;-76
2021/05/01 04:41:01;;;;;;;47.25;29.20;;;;;;;-141.50;100.00;63355.56;5016865;28;20068;-74
2021/05/01 04:43:27;;;;;;;42.67;26.95;;;;;;;-141.50;100.00;63355.56;5033653;28;20056;-74
2021/05/01 04:45:54;;;;;;;42.38;27.33;;;;;;;-141.50;100.00;63355.56;5050121;28;20052;-74
2021/05/01 04:48:21;;;;;;;46.92;27.98;;;;;;;-141.50;100.00;63355.56;5033045;28;20040;-75
2021/05/01 04:50:51;;;;;;;46.05;29.17;;;;;;;-141.50;100.00;63355.56;5051064;28;20049;-75
2021/05/01 04:53:18;;;;;;;48.67;30.05;;;;;;;-141.50;100.00;63355.56;5051147;28;20350;-76
2021/05/01 04:55:44;;;;;;;46.03;28.88;;;;;;;-141.50;100.00;63355.56;5051802;28;20517;-75
2021/05/01 04:58:10;;;;;;;45.53;28.92;;;;;;;-141.50;100.00;63355.56;5016719;28;20404;-76
2021/05/01 05:00:37;;;;;;;45.75;28.77;;;;;;;-141.50;100.00;63355.56;5018992;28;20049;-75
2021/05/01 05:03:03;;;;;;;43.47;27.30;;;;;;;-141.50;100.00;63355.56;5035205;28;20336;-76
2021/05/01 05:05:30;;;;;;;43.72;27.13;;;;;;;-141.50;100.00;63355.56;5016348;28;20517;-74
2021/05/01 05:07:57;;;;;;;42.90;26.85;;;;;;;-141.50;100.00;63355.56;5033074;28;20040;-74
2021/05/01 05:10:23;;;;;;;44.10;27.35;;;;;;;-141.50;100.00;63355.56;5050944;28;20053;-75
2021/05/01 05:12:49;;;;;;;44.92;28.35;;;;;;;-141.50;100.00;63355.56;5016574;28;20056;-74
2021/05/01 05:15:16;;;;;;;41.85;26.83;;;;;;;-141.50;100.00;63355.56;5016630;28;20048;-76
2021/05/01 05:17:42;;;;;;;41.88;26.17;;;;;;;-141.50;100.00;63355.56;5050773;28;20045;-74
2021/05/01 05:20:09;;;;;;;40.78;26.58;;;;;;;-141.50;100.00;63355.56;5042928;28;20112;-73
2021/05/01 05:22:35;;;;;;;39.88;26.23;;;;;;;-141.50;100.00;63355.56;5033996;28;20516;-75
2021/05/01 05:25:03;;;;;;;39.65;26.98;;;;;;;-141.50;100.00;63355.56;5033831;28;20118;-75
2021/05/01 05:27:29;;;;;;;41.55;27.70;;;;;;;-141.50;100.00;63355.56;5033147;28;20120;-75
2021/05/01 05:29:55;;;;;;;39.45;26.85;;;;;;;-141.50;100.00;63355.56;5051317;28;20045;-76
2021/05/01 05:32:23;;;;;;;44.40;26.88;;;;;;;-141.50;100.00;63355.56;5032994;28;20411;-75
2021/05/01 05:34:51;;;;;;;41.58;27.17;;;;;;;-141.50;100.00;63355.56;5050949;28;20041;-77
2021/05/01 05:37:17;;;;;;;40.05;26.13;;;;;;;-141.50;100.00;63355.56;5053508;28;20397;-76
2021/05/01 05:39:46;;;;;;;40.90;27.17;;;;;;;-141.50;100.00;63355.56;5054118;28;20060;-77
2021/05/01 05:42:12;;;;;;;41.72;27.73;;;;;;;-141.50;100.00;63355.56;5036178;28;20044;-77
2021/05/01 05:44:41;;;;;;;39.35;26.67;;;;;;;-141.50;100.00;63355.56;5052963;28;20400;-75
2021/05/01 05:47:07;;;;;;;42.65;26.52;;;;;;;-141.50;100.00;63355.56;5021166;28;20053;-77
2021/05/01 05:49:37;;;;;;;41.63;26.60;;;;;;;-141.50;100.00;63355.56;5036279;28;20040;-77
2021/05/01 05:52:03;;;;;;;44.33;28.20;;;;;;;-141.50;100.00;63355.56;5053930;28;20045;-76
2021/05/01 05:54:29;;;;;;;43.45;27.42;;;;;;;-141.50;100.00;63355.56;5036910;28;20084;-76
2021/05/01 05:56:56;;;;;;;38.80;26.17;;;;;;;-141.50;100.00;63355.56;5035996;28;20063;-75
2021/05/01 05:59:22;;;;;;;41.08;26.85;;;;;;;-141.50;100.00;63355.56;5021567;28;20534;-76
2021/05/01 06:01:51;;;;;;;37.20;24.23;;;;;;;-141.50;100.00;63355.56;5057175;28;20044;-77
2021/05/01 06:04:24;;;;;;;40.17;25.83;;;;;;;-141.50;100.00;63355.56;5038534;28;20092;-77
2021/05/01 06:07:13;;;;;;;40.17;26.52;;;;;;;-141.50;100.00;63355.56;5020694;28;20518;-77
2021/05/01 06:09:40;;;;;;;43.70;25.77;;;;;;;-141.50;100.00;63355.56;5056434;28;20052;-77
2021/05/01 06:12:10;;;;;;;41.53;26.60;;;;;;;-141.50;100.00;63355.56;5059904;28;20056;-75
2021/05/01 06:14:42;;;;;;;39.10;26.10;;;;;;;-141.50;100.00;63355.56;5066474;28;20071;-77
2021/05/01 06:17:10;;;;;;;41.58;26.08;;;;;;;-141.50;100.00;63355.56;5064631;28;20049;-76
2021/05/01 06:19:42;;;;;;;36.08;24.77;;;;;;;-141.50;100.00;63355.56;5041120;28;20049;-77
2021/05/01 06:22:10;;;;;;;36.63;24.98;;;;;;;-141.50;100.00;63355.56;5039197;28;20190;-77
2021/05/01 06:24:39;;;;;;;36.42;25.08;;;;;;;-141.50;100.00;63355.56;5021542;28;20041;-76
2021/05/01 06:27:05;;;;;;;37.53;23.52;;;;;;;-141.50;100.00;63355.56;5029372;28;20068;-77
2021/05/01 06:29:34;;;;;;;36.10;24.70;;;;;;;-141.50;100.00;63355.56;5026871;28;20410;-75
2021/05/01 06:32:00;;;;;;;35.38;23.95;;;;;;;-141.50;100.00;63355.56;5041571;28;20047;-78
2021/05/01 06:34:26;;;;;;;36.88;24.67;;;;;;;-141.50;100.00;63355.56;5004410;28;20049;-77
2021/05/01 06:36:53;;;;;;;36.13;24.65;;;;;;;-141.50;100.00;63355.56;5041224;28;20484;-76
2021/05/01 06:39:19;;;;;;;33.67;22.42;;;;;;;-141.50;100.00;63355.56;5041507;28;20049;-78
2021/05/01 06:41:56;;;;;;;32.70;22.20;;;;;;;-141.50;100.00;63355.56;5040017;28;20045;-78
2021/05/01 06:44:45;;;;;;;32.67;22.35;;;;;;;-141.50;100.00;63355.56;5040199;28;20389;-76
2021/05/01 06:47:16;;;;;;;34.65;22.75;;;;;;;-141.50;100.00;63355.56;5023032;28;20073;-76
2021/05/01 06:50:08;;;;;;;33.22;22.42;;;;;;;-141.50;100.00;63355.56;5027207;28;20042;-76
2021/05/01 06:52:40;;;;;;;35.28;23.65;;;;;;;-141.50;100.00;63355.56;5043314;28;20368;-76
2021/05/01 06:55:12;;;;;;;37.92;23.70;;;;;;;-141.50;100.00;63355.56;5021300;28;20057;-77
2021/05/01 06:57:46;;;;;;;34.22;23.58;;;;;;;-141.50;100.00;63355.56;5017317;28;20049;-75
2021/05/01 07:00:14;;;;;;;34.63;23.63;;;;;;;-141.50;100.00;63355.56;5048288;28;20063;-77
2021/05/01 07:02:44;;;;;;;32.88;23.35;;;;;;;-141.50;100.00;63355.56;5028726;28;20055;-76
2021/05/01 07:05:16;;;;;;;38.83;24.63;;;;;;;-141.50;100.00;63355.56;5049282;28;20041;-76
2021/05/01 07:07:44;;;;;;;29.15;20.77;;;;;;;-141.50;100.00;63355.56;5047843;28;20053;-78
2021/05/01 07:10:13;;;;;;;29.90;19.50;;;;;;;-141.50;100.00;63355.56;5014460;28;20508;-77
2021/05/01 07:12:40;;;;;;;30.70;20.67;;;;;;;-141.50;100.00;63355.56;5033120;28;20048;-77
2021/05/01 07:15:10;;;;;;;34.45;22.65;;;;;;;-141.50;100.00;63355.56;5034463;28;20037;-83
2021/05/01 07:17:42;;;;;;;32.97;22.00;;;;;;;-141.50;100.00;63355.56;5038056;28;20051;-79
2021/05/01 07:20:22;;;;;;;31.33;20.98;;;;;;;-141.50;100.00;63355.56;5055084;28;20045;-80
2021/05/01 07:22:56;;;;;;;32.65;22.00;;;;;;;-141.50;100.00;63355.56;5075000;28;20021;-80
2021/05/01 07:25:26;;;;;;;30.33;19.80;;;;;;;-141.50;100.00;63355.56;5049554;28;20049;-77
2021/05/01 07:28:01;;;;;;;30.45;20.80;;;;;;;-141.50;100.00;63355.56;5042633;28;20068;-76
2021/05/01 07:30:29;;;;;;;27.08;19.45;;;;;;;-141.50;100.00;63355.56;5050558;28;20049;-76
2021/05/01 07:33:07;;;;;;;31.50;21.00;;;;;;;-141.50;100.00;63355.56;5068169;28;20064;-75
2021/05/01 07:35:34;;;;;;;31.20;20.10;;;;;;;-141.50;100.00;63355.56;5067676;28;20053;-76
2021/05/01 07:38:07;;;;;;;29.30;20.45;;;;;;;-141.50;100.00;63355.56;5069027;28;20069;-76
2021/05/01 07:40:33;;;;;;;30.08;19.83;;;;;;;-141.50;100.00;63355.56;5050628;28;20044;-77
2021/05/01 07:43:00;;;;;;;27.23;19.63;;;;;;;-141.50;100.00;63355.56;5050172;28;20459;-75
2021/05/01 07:45:27;;;;;;;28.77;19.98;;;;;;;-141.50;100.00;63355.56;5051230;28;20504;-75
2021/05/01 07:47:55;;;;;;;25.98;18.65;;;;;;;-141.50;100.00;63355.56;5050666;28;20100;-76
2021/05/01 07:50:25;;;;;;;28.45;19.33;;;;;;;-141.50;100.00;63355.56;5034591;28;20488;-75
2021/05/01 07:52:53;;;;;;;25.30;17.33;;;;;;;-141.50;100.00;63355.56;5051371;28;20053;-75
2021/05/01 07:55:20;;;;;;;27.00;18.73;;;;;;;-141.50;100.00;63355.56;5031981;28;20048;-75
2021/05/01 07:57:49;;;;;;;27.73;19.48;;;;;;;-141.50;100.00;63355.56;5032406;28;20044;-79
2021/05/01 08:00:17;;;;;;;30.10;18.48;;;;;;;-141.50;100.00;63355.56;5051760;28;20505;-76
2021/05/01 08:02:46;;;;;;;28.65;19.10;;;;;;;-141.50;100.00;63355.56;5049518;28;20059;-75
2021/05/01 08:05:14;;;;;;;24.25;16.95;;;;;;;-141.50;100.00;63355.56;5015805;28;20463;-77
2021/05/01 08:07:41;;;;;;;25.33;17.77;;;;;;;-141.50;100.00;63355.56;5049313;28;20049;-75
2021/05/01 08:10:08;;;;;;;25.33;17.83;;;;;;;-141.50;100.00;63355.56;5049653;28;20048;-76
2021/05/01 08:12:35;;;;;;;23.05;16.90;;;;;;;-141.50;100.00;63355.56;5031333;28;20124;-77
2021/05/01 08:15:02;;;;;;;22.95;16.13;;;;;;;-141.50;100.00;63355.56;5014496;28;20103;-77
2021/05/01 08:17:28;;;;;;;23.80;16.75;;;;;;;-141.50;100.00;63355.56;5030961;28;20440;-77
2021/05/01 08:19:55;;;;;;;24.48;16.00;;;;;;;-141.50;100.00;63355.56;5031628;28;20049;-77
2021/05/01 08:22:22;;;;;;;20.80;14.98;;;;;;;-141.50;100.00;63355.56;5030951;28;20527;-76
2021/05/01 08:24:49;;;;;;;19.83;14.90;;;;;;;-141.50;100.00;63355.56;5030259;28;20045;-69
2021/05/01 08:27:16;;;;;;;21.70;14.32;;;;;;;-141.50;100.00;63355.56;5030299;28;20057;-77
2021/05/01 08:29:44;;;;;;;22.40;13.77;;;;;;;-141.50;100.00;63355.56;5031420;28;20057;-77
2021/05/01 08:32:10;;;;;;;19.08;13.23;;;;;;;-141.50;100.00;63355.56;5031175;28;20061;-77
2021/05/01 08:34:41;;;;;;;15.93;10.70;;;;;;;-141.50;100.00;63355.56;5048226;28;20037;-77
2021/05/01 08:37:07;;;;;;;13.50;9.18;;;;;;;-141.50;100.00;63355.56;5032245;28;20045;-76
2021/05/01 08:39:34;;;;;;;14.52;10.65;;;;;;;-141.50;100.00;63355.56;5029919;28;20579;-76
2021/05/01 08:42:00;;;;;;;16.90;11.63;;;;;;;-141.50;100.00;63355.56;5031287;28;20053;-76
2021/05/01 08:44:29;;;;;;;16.35;10.30;;;;;;;-141.50;100.00;63355.56;5030444;28;20068;-77
2021/05/01 08:46:55;;;;;;;12.98;9.10;;;;;;;-141.50;100.00;63355.56;5031234;28;20056;-76
2021/05/01 08:49:21;;;;;;;14.35;9.07;;;;;;;-141.50;100.00;63355.56;5047131;28;20963;-76
2021/05/01 08:51:48;;;;;;;13.52;8.93;;;;;;;-141.50;100.00;63355.56;5014555;28;20048;-76
2021/05/01 08:54:15;;;;;;;14.40;9.65;;;;;;;-141.50;100.00;63355.56;5047629;28;20049;-75
2021/05/01 08:56:42;;;;;;;13.95;9.95;;;;;;;-141.50;100.00;63355.56;5031179;28;20045;-77
2021/05/01 08:59:10;;;;;;;12.98;9.90;;;;;;;-141.50;100.00;63355.56;5051385;28;20076;-77
2021/05/01 09:01:37;;;;;;;13.13;9.50;;;;;;;-141.50;100.00;63355.56;5032340;28;20072;-77
2021/05/01 09:04:09;;;;;;;10.90;8.20;;;;;;;-141.50;100.00;63355.56;5031109;28;20468;-77
2021/05/01 09:06:36;;;;;;;17.23;10.40;;;;;;;-141.50;100.00;63355.56;5029112;28;20791;-76
2021/05/01 09:09:11;;;;;;;15.40;9.93;;;;;;;-141.50;100.00;63355.56;5032914;28;20052;-76
2021/05/01 09:11:43;;;;;;;12.25;8.98;;;;;;;-141.50;100.00;63355.56;5032889;28;20652;-76
2021/05/01 09:14:24;;;;;;;14.30;9.52;;;;;;;-141.50;100.00;63355.56;5031127;28;20049;-76
2021/05/01 09:17:02;;;;;;;12.70;9.20;;;;;;;-141.50;100.00;63355.56;5048368;28;20079;-78
2021/05/01 09:19:32;;;;;;;15.02;10.02;;;;;;;-141.50;100.00;63355.56;5030074;28;20083;-78
2021/05/01 09:22:01;;;;;;;16.00;10.15;;;;;;;-141.50;100.00;63355.56;5030267;28;20116;-72
2021/05/01 09:24:27;;;;;;;14.45;9.02;;;;;;;-141.50;100.00;63355.56;5012490;28;20075;-74
2021/05/01 09:26:53;;;;;;;11.55;8.60;;;;;;;-141.50;100.00;63355.56;5048547;28;20500;-75
2021/05/01 09:29:33;;;;;;;13.10;8.80;;;;;;;-141.50;100.00;63355.56;5048004;28;20045;-76
2021/05/01 09:32:08;;;;;;;12.90;9.77;;;;;;;-141.50;100.00;63355.56;5039900;28;20060;-76
2021/05/01 09:34:43;;;;;;;14.70;10.13;;;;;;;-141.50;100.00;63355.56;5016855;28;20056;-75
2021/05/01 09:37:10;;;;;;;13.23;9.50;;;;;;;-141.50;100.00;63355.56;5051366;28;20047;-77
2021/05/01 09:39:55;;;;;;;11.98;8.45;;;;;;;-141.50;100.00;63355.56;5051481;28;20055;-78
2021/05/01 09:42:23;;;;;;;13.73;9.43;;;;;;;-141.50;100.00;63355.56;5050301;28;20055;-75
2021/05/01 09:45:19;;;;;;;13.43;10.23;;;;;;;-141.50;100.00;63355.56;5030951;28;20045;-79
2021/05/01 09:47:50;;;;;;;13.43;10.18;;;;;;;-141.50;100.00;63355.56;5030352;28;20132;-77
2021/05/01 09:50:21;;;;;;;12.10;8.65;;;;;;;-141.50;100.00;63355.56;5048127;28;20049;-76
2021/05/01 09:52:59;;;;;;;12.93;8.93;;;;;;;-141.50;100.00;63355.56;5029167;28;20052;-76
2021/05/01 09:55:45;;;;;;;12.38;9.68;;;;;;;-141.50;100.00;63355.56;5032253;28;20271;-77
2021/05/01 09:58:22;;;;;;;11.25;9.43;;;;;;;-141.50;100.00;63355.56;5030800;28;20049;-76
2021/05/01 10:00:53;;;;;;;11.95;9.70;;;;;;;-141.50;100.00;63355.56;5048606;28;20056;-76
2021/05/01 10:03:23;;;;;;;14.50;10.80;;;;;;;-141.50;100.00;63355.56;5030321;28;20056;-78
2021/05/01 10:05:51;;;;;;;14.02;10.55;;;;;;;-141.50;100.00;63355.56;5029838;28;20069;-77
2021/05/01 10:08:22;;;;;;;15.52;11.13;;;;;;;-141.50;100.00;63355.56;5029130;28;20048;-77
2021/05/01 10:10:49;;;;;;;15.38;10.55;;;;;;;-141.50;100.00;63355.56;5047675;28;20045;-77
2021/05/01 10:13:47;;;;;;;15.25;10.98;;;;;;;-141.50;100.00;63355.56;5033117;28;20144;-76
2021/05/01 10:16:13;;;;;;;14.77;11.40;;;;;;;-141.50;100.00;63355.56;5065193;28;20043;-75
2021/05/01 10:19:06;;;;;;;16.27;11.38;;;;;;;-141.50;100.00;63355.56;5042791;28;20844;-74
2021/05/01 10:21:34;;;;;;;15.88;11.52;;;;;;;-141.50;100.00;63355.56;5046651;28;20048;-76
2021/05/01 10:24:00;;;;;;;15.77;11.25;;;;;;;-141.50;100.00;63355.56;5028453;28;20053;-79
2021/05/01 10:26:26;;;;;;;15.20;11.40;;;;;;;-141.50;100.00;63355.56;5021169;28;20541;-79
2021/05/01 10:28:58;;;;;;;14.90;10.93;;;;;;;-141.50;100.00;63355.56;5035082;28;20056;-78
2021/05/01 10:31:24;;;;;;;18.17;11.60;;;;;;;-141.50;100.00;63355.56;5047327;28;20045;-79
2021/05/01 10:33:51;;;;;;;18.17;12.77;;;;;;;-141.50;100.00;63355.56;5029320;28;20059;-79
2021/05/01 10:36:30;;;;;;;16.63;11.50;;;;;;;-141.50;100.00;63355.56;5031654;28;20033;-80
2021/05/01 10:39:05;;;;;;;13.48;10.57;;;;;;;-141.50;100.00;63355.56;5047841;28;20056;-80
2021/05/01 10:41:33;;;;;;;15.30;10.45;;;;;;;-141.50;100.00;63355.56;5029793;28;20069;-80
2021/05/01 10:44:01;;;;;;;15.82;11.85;;;;;;;-141.50;100.00;63355.56;5013219;28;20099;-79
2021/05/01 10:46:30;;;;;;;14.52;11.02;;;;;;;-141.50;100.00;63355.56;5029739;28;20045;-79
2021/05/01 10:48:59;;;;;;;14.88;10.52;;;;;;;-141.50;100.00;63355.56;5046673;28;20063;-79
2021/05/01 10:51:27;;;;;;;16.23;11.98;;;;;;;-141.50;100.00;63355.56;5028831;28;20060;-79
2021/05/01 10:54:15;;;;;;;14.02;10.70;;;;;;;-141.50;100.00;63355.56;5027773;28;20052;-79
2021/05/01 10:56:44;;;;;;;16.17;10.57;;;;;;;-141.50;100.00;63355.56;5028243;28;20129;-79
2021/05/01 10:59:14;;;;;;;13.68;11.43;;;;;;;-141.50;100.00;63355.56;5028742;28;20056;-79
2021/05/01 11:01:48;;;;;;;13.32;10.15;;;;;;;-141.50;100.00;63355.56;5021043;28;20045;-77